Pagrindinis puslapis
METAR-TAF:

METAR-TAF

Oro uostai :

Mikelis, Suomija

platuma: 61-44N, ilguma: 027-18E, Aukštis: 138 m

Dabartinis oras

Ataskaita buvo paskelbta 33 minutes, ne 08:20 UTC
Vėjas 6 kt iš Rytų
Temperatūra -4°C
Drėgmė 93%
Slėgis 1010 hPa
Matomumas: 2600 m
Apsiniaukę ne aukštis 800 ft
sniegas

METAR: EFMI 100820Z AUTO 10006KT 2600 SN OVC008 M04/M05 Q1010

Laikas: 10:53 (08:53 UTC)


TAF: trūkstamas

Orai ataskaitas ir orų prognozės (METAR, TAF).

turimą stotys yra geltonos ir raudonos taškus žemėlapyje.

Perkelti pele per norėdami pamatyti stoties vardą.

Tada spustelėkite, norėdami matyti oro stebėjimo ir prognozės.

Norėdami pakeisti žemėlapį: spustelėkite ant žalios mygtukų su juodo kryžiaus žemyn,; žalią mygtuką su brūkšneliu, jei norite nutolinti; arba žalių rodyklių gretimoms žemėlapius.


METAR-TAF: